Time;durP1;ratioP1;P1;durP2;ratioP2;P2;SDS_P1;SDS_P2;PMS_P1;PMS_P2;Temp;Humidity;BMP_temperature;BMP_pressure;BME280_temperature;BME280_humidity;BME280_pressure;Samples;Min_cycle;Max_cycle;Signal;HPM_P1;HPM_P2
2022/12/23 00:01:13;;;;;;;1.33;1.20;;;11.00;99.90;;;;;;5010485;28;20221;-79
2022/12/23 00:03:38;;;;;;;1.33;1.02;;;11.00;99.90;;;;;;5010535;28;20179;-79
2022/12/23 00:06:09;;;;;;;2.33;1.00;;;11.30;99.90;;;;;;5011996;28;20195;-79
2022/12/23 00:08:35;;;;;;;3.83;0.80;;;10.80;99.90;;;;;;5006689;28;20186;-79
2022/12/23 00:11:04;;;;;;;0.90;0.80;;;11.40;99.90;;;;;;5011977;28;20264;-79
2022/12/23 00:16:13;;;;;;;2.15;0.93;;;11.30;99.90;;;;;;5010134;28;20330;-77
2022/12/23 00:18:40;;;;;;;1.20;0.90;;;10.80;99.90;;;;;;5007909;28;20715;-78
2022/12/23 00:21:08;;;;;;;1.60;0.80;;;10.80;99.90;;;;;;5011710;28;20203;-78
2022/12/23 00:23:39;;;;;;;1.40;0.82;;;10.90;99.90;;;;;;5009499;28;20271;-78
2022/12/23 00:26:06;;;;;;;2.42;1.73;;;10.90;99.90;;;;;;5011506;28;20187;-78
2022/12/23 00:28:32;;;;;;;1.73;1.00;;;10.60;99.90;;;;;;5014761;28;20208;-78
2022/12/23 00:31:02;;;;;;;1.23;0.90;;;11.00;99.90;;;;;;5015834;28;20252;-78
2022/12/23 00:33:34;;;;;;;2.22;0.90;;;11.20;99.90;;;;;;5007814;28;20549;-78
2022/12/23 00:36:00;;;;;;;2.22;1.38;;;10.80;99.90;;;;;;5011403;28;20203;-78
2022/12/23 00:43:56;;;;;;;1.83;0.88;;;10.40;99.90;;;;;;5006615;28;20619;-78
2022/12/23 00:46:22;;;;;;;1.83;1.00;;;11.10;99.90;;;;;;5011811;28;20184;-79
2022/12/23 00:51:32;;;;;;;0.93;0.85;;;11.00;99.90;;;;;;5012126;28;20688;-78
2022/12/23 00:53:58;;;;;;;1.10;1.00;;;10.80;99.90;;;;;;5007655;28;20192;-78
2022/12/23 00:56:23;;;;;;;0.90;0.80;;;11.40;99.90;;;;;;5013912;28;20196;-79
2022/12/23 00:58:49;;;;;;;1.37;0.73;;;10.80;99.90;;;;;;5010805;28;20212;-79
2022/12/23 01:06:43;;;;;;;1.13;0.60;;;10.80;99.90;;;;;;5014305;28;20192;-78
2022/12/23 01:09:08;;;;;;;1.33;0.73;;;11.60;99.90;;;;;;5004909;28;20192;-79
2022/12/23 01:11:34;;;;;;;1.10;0.80;;;11.30;99.90;;;;;;5010993;28;20723;-78
2022/12/23 01:14:00;;;;;;;0.80;0.67;;;11.50;99.90;;;;;;5010508;28;20908;-78
2022/12/23 01:16:25;;;;;;;2.90;0.80;;;11.40;99.90;;;;;;5009339;28;20208;-78
2022/12/23 01:18:51;;;;;;;1.47;0.77;;;11.80;99.90;;;;;;5004530;28;20226;-78
2022/12/23 01:21:16;;;;;;;0.80;0.70;;;11.40;99.90;;;;;;5009518;28;20223;-78
2022/12/23 01:23:42;;;;;;;1.07;0.67;;;11.60;99.90;;;;;;5009394;28;20204;-79
2022/12/23 01:26:07;;;;;;;1.30;0.70;;;11.80;99.90;;;;;;5010590;28;20189;-78
2022/12/23 01:28:34;;;;;;;0.70;0.70;;;11.40;99.90;;;;;;5010725;28;20209;-78
2022/12/23 01:31:01;;;;;;;1.27;0.70;;;11.30;99.90;;;;;;5009105;28;20208;-79
2022/12/23 01:33:27;;;;;;;1.50;0.85;;;11.30;99.90;;;;;;5001983;28;20272;-79
2022/12/23 01:36:04;;;;;;;2.35;1.00;;;11.40;99.90;;;;;;5010814;28;20194;-79
2022/12/23 01:38:30;;;;;;;1.70;0.70;;;11.30;99.90;;;;;;5005946;28;20322;-79
2022/12/23 01:40:55;;;;;;;0.70;0.70;;;11.30;99.90;;;;;;5009524;28;20678;-78
2022/12/23 01:43:21;;;;;;;1.00;0.60;;;11.50;99.90;;;;;;5010505;28;20263;-78
2022/12/23 01:45:47;;;;;;;0.90;0.80;;;11.60;99.90;;;;;;5010388;28;20433;-79
2022/12/23 01:48:25;;;;;;;1.08;0.70;;;11.40;99.90;;;;;;5005320;28;20252;-78
2022/12/23 01:50:54;;;;;;;2.25;0.82;;;11.60;99.90;;;;;;5010433;28;20267;-78
2022/12/23 01:53:25;;;;;;;1.00;0.60;;;12.00;99.90;;;;;;5002456;28;20201;-79
2022/12/23 01:55:55;;;;;;;0.88;0.88;;;11.50;99.90;;;;;;5013324;28;20276;-78
2022/12/23 01:58:33;;;;;;;0.80;0.60;;;11.70;99.90;;;;;;5010710;28;20673;-78
2022/12/23 02:03:45;;;;;;;0.60;0.60;;;11.80;99.90;;;;;;5006687;28;20615;-79
2022/12/23 02:09:31;;;;;;;1.58;0.80;;;11.90;99.90;;;;;;4998432;28;20205;-78
2022/12/23 02:12:09;;;;;;;1.10;0.55;;;11.80;99.90;;;;;;5009999;28;20210;-78
2022/12/23 02:18:15;;;;;;;0.70;0.70;;;11.80;99.90;;;;;;5002650;28;20235;-79
2022/12/23 02:21:10;;;;;;;0.93;0.80;;;11.90;99.90;;;;;;5009882;28;20605;-78
2022/12/23 02:23:50;;;;;;;1.00;0.80;;;11.90;99.90;;;;;;5005397;28;20179;-78
2022/12/23 02:26:48;;;;;;;1.40;0.60;;;12.00;99.90;;;;;;5010168;28;20175;-77
2022/12/23 02:29:37;;;;;;;0.60;0.50;;;12.00;99.90;;;;;;4990578;28;20194;-76
2022/12/23 02:32:15;;;;;;;0.90;0.60;;;12.40;99.90;;;;;;5008174;28;20211;-77
2022/12/23 02:34:51;;;;;;;1.00;0.90;;;12.00;99.90;;;;;;5008651;28;20347;-78
2022/12/23 02:37:27;;;;;;;0.80;0.60;;;12.10;99.90;;;;;;5009756;28;20193;-78
2022/12/23 02:40:15;;;;;;;1.23;0.63;;;12.40;99.90;;;;;;5004326;28;20220;-78
2022/12/23 02:43:04;;;;;;;0.98;0.57;;;12.20;99.90;;;;;;5010084;28;20211;-79
2022/12/23 02:45:48;;;;;;;0.60;0.60;;;12.00;99.90;;;;;;5010627;28;20178;-78
2022/12/23 02:48:37;;;;;;;1.20;0.50;;;12.40;99.90;;;;;;5006141;28;20187;-79
2022/12/23 02:51:06;;;;;;;0.90;0.70;;;12.40;99.90;;;;;;5030881;28;20240;-78
2022/12/23 02:53:36;;;;;;;0.80;0.52;;;11.90;99.90;;;;;;5011722;28;20268;-78
2022/12/23 02:56:04;;;;;;;0.70;0.60;;;12.30;99.90;;;;;;5016668;28;20179;-77
2022/12/23 02:58:39;;;;;;;0.90;0.70;;;12.00;99.90;;;;;;5011830;28;20235;-78
2022/12/23 03:01:06;;;;;;;1.00;0.90;;;11.90;99.90;;;;;;5010408;28;20206;-77
2022/12/23 03:03:34;;;;;;;0.70;0.70;;;12.30;99.90;;;;;;5009313;28;20595;-78
2022/12/23 03:06:03;;;;;;;0.65;0.50;;;12.10;99.90;;;;;;5013695;28;20789;-78
2022/12/23 03:08:33;;;;;;;0.80;0.60;;;12.40;99.90;;;;;;5021171;28;20382;-78
2022/12/23 03:11:08;;;;;;;1.50;0.70;;;12.20;99.90;;;;;;5005157;28;20222;-78
2022/12/23 03:14:06;;;;;;;2.20;0.70;;;12.10;99.90;;;;;;5012844;28;20190;-78
2022/12/23 03:16:50;;;;;;;0.70;0.60;;;12.40;99.90;;;;;;5012118;28;20780;-77
2022/12/23 03:19:36;;;;;;;0.60;0.60;;;12.40;99.90;;;;;;5006519;28;20213;-78
2022/12/23 03:22:13;;;;;;;1.35;0.80;;;11.80;99.90;;;;;;5002668;28;20626;-78
2022/12/23 03:24:41;;;;;;;0.93;0.70;;;12.40;99.90;;;;;;5010472;28;20221;-78
2022/12/23 03:27:12;;;;;;;2.00;0.85;;;12.20;99.90;;;;;;5012525;28;20245;-78
2022/12/23 03:30:04;;;;;;;0.98;0.90;;;12.20;99.90;;;;;;5013130;28;20269;-78
2022/12/23 03:32:35;;;;;;;1.30;0.90;;;12.20;99.90;;;;;;5012588;28;20210;-77
2022/12/23 03:35:03;;;;;;;1.35;0.65;;;11.90;99.90;;;;;;5009813;28;20191;-77
2022/12/23 03:37:32;;;;;;;1.50;0.90;;;12.50;99.90;;;;;;5012219;28;20205;-77
2022/12/23 03:40:05;;;;;;;0.85;0.85;;;12.30;99.90;;;;;;5006326;28;20207;-77
2022/12/23 03:42:35;;;;;;;2.10;1.17;;;12.30;99.90;;;;;;5012189;28;20264;-77
2022/12/23 03:45:08;;;;;;;1.15;0.90;;;12.10;99.90;;;;;;5012402;28;20190;-78
2022/12/23 03:47:39;;;;;;;1.90;0.82;;;12.40;99.90;;;;;;5005619;28;20237;-77
2022/12/23 03:50:11;;;;;;;1.15;1.00;;;12.30;99.90;;;;;;5022629;28;20271;-77
2022/12/23 03:52:56;;;;;;;2.55;1.60;;;12.10;99.90;;;;;;5003558;28;20217;-77
2022/12/23 03:55:36;;;;;;;0.80;0.60;;;11.80;99.90;;;;;;5013303;28;20276;-77
2022/12/23 03:58:20;;;;;;;1.45;0.75;;;11.80;99.90;;;;;;5010359;28;20623;-78
2022/12/23 04:01:29;;;;;;;1.52;0.75;;;12.30;99.90;;;;;;5011172;28;20277;-77
2022/12/23 04:04:01;;;;;;;0.60;0.60;;;12.50;99.90;;;;;;5005077;28;20248;-78
2022/12/23 04:06:34;;;;;;;2.72;1.80;;;11.90;99.90;;;;;;5011451;28;20545;-77
2022/12/23 04:09:01;;;;;;;1.30;1.20;;;12.30;99.90;;;;;;4993019;28;20194;-78
2022/12/23 04:11:28;;;;;;;2.45;1.23;;;11.90;99.90;;;;;;5007595;28;20209;-78
2022/12/23 04:13:53;;;;;;;1.23;1.13;;;12.20;99.90;;;;;;5013423;28;20193;-78
2022/12/23 04:16:19;;;;;;;2.73;1.50;;;12.10;99.90;;;;;;5011142;28;20273;-77
2022/12/23 04:18:44;;;;;;;1.00;0.93;;;12.40;99.90;;;;;;5005766;28;20237;-78
2022/12/23 04:21:10;;;;;;;2.03;1.00;;;12.40;99.90;;;;;;5011301;28;20210;-78
2022/12/23 04:23:36;;;;;;;2.80;1.20;;;12.00;99.90;;;;;;5005523;28;20561;-78
2022/12/23 04:26:01;;;;;;;1.80;1.17;;;11.80;99.90;;;;;;5006988;28;20184;-77
2022/12/23 04:28:27;;;;;;;2.23;1.10;;;12.20;99.90;;;;;;5011524;28;20193;-78
2022/12/23 04:30:52;;;;;;;5.47;1.60;;;11.80;99.90;;;;;;5012341;28;20186;-78
2022/12/23 04:33:18;;;;;;;1.57;1.00;;;11.90;99.90;;;;;;5007751;28;20609;-77
2022/12/23 04:35:43;;;;;;;1.00;0.90;;;11.90;99.90;;;;;;5011371;28;20188;-78
2022/12/23 04:38:09;;;;;;;1.30;1.20;;;11.70;99.90;;;;;;5008995;28;20190;-78
2022/12/23 04:40:34;;;;;;;1.30;1.00;;;12.10;99.90;;;;;;5005625;28;20221;-77
2022/12/23 04:43:00;;;;;;;1.60;1.10;;;11.80;99.90;;;;;;5011137;28;20678;-78
2022/12/23 04:45:25;;;;;;;3.57;1.27;;;12.20;99.90;;;;;;5008013;28;20202;-78
2022/12/23 04:47:51;;;;;;;1.50;0.93;;;11.90;99.90;;;;;;5011202;28;20188;-78
2022/12/23 04:50:17;;;;;;;1.20;1.10;;;12.30;99.90;;;;;;5013123;28;20232;-77
2022/12/23 04:52:42;;;;;;;1.37;1.27;;;12.10;99.90;;;;;;5009293;28;20207;-77
2022/12/23 04:55:09;;;;;;;1.83;0.90;;;12.40;99.90;;;;;;5010095;28;20440;-77
2022/12/23 04:57:34;;;;;;;1.20;1.00;;;12.00;99.90;;;;;;5010588;28;20425;-77
2022/12/23 05:00:00;;;;;;;1.63;1.10;;;12.50;99.90;;;;;;5010325;28;20218;-78
2022/12/23 05:02:25;;;;;;;4.07;1.80;;;12.40;99.90;;;;;;5010592;28;20222;-78
2022/12/23 05:04:51;;;;;;;1.40;1.30;;;12.50;99.90;;;;;;5009789;28;20598;-78
2022/12/23 05:07:16;;;;;;;3.47;1.30;;;11.80;99.90;;;;;;5010635;28;20563;-78
2022/12/23 05:09:42;;;;;;;1.27;1.10;;;12.40;99.90;;;;;;5007152;28;20195;-78
2022/12/23 05:12:07;;;;;;;1.23;1.13;;;12.00;99.90;;;;;;5018325;28;20206;-78
2022/12/23 05:14:33;;;;;;;1.97;1.30;;;12.10;99.90;;;;;;5011697;28;20266;-78
2022/12/23 05:16:58;;;;;;;1.53;1.43;;;12.30;99.90;;;;;;5008978;28;20710;-78
2022/12/23 05:19:24;;;;;;;1.47;1.23;;;12.40;99.90;;;;;;5010539;28;20207;-78
2022/12/23 05:21:49;;;;;;;1.30;1.20;;;12.40;99.90;;;;;;5011096;28;20217;-78
2022/12/23 05:24:15;;;;;;;1.63;1.23;;;11.80;99.90;;;;;;5001913;28;20187;-78
2022/12/23 05:26:40;;;;;;;3.10;1.87;;;12.70;99.90;;;;;;5011705;28;20221;-78
2022/12/23 05:29:06;;;;;;;1.90;1.70;;;12.60;99.90;;;;;;5010547;28;20197;-78
2022/12/23 05:31:31;;;;;;;3.50;1.77;;;12.80;99.90;;;;;;5009061;28;20209;-77
2022/12/23 05:33:57;;;;;;;4.33;1.80;;;13.00;99.90;;;;;;5007922;28;20193;-78
2022/12/23 05:36:22;;;;;;;2.00;1.53;;;12.10;99.90;;;;;;5010587;28;20643;-78
2022/12/23 05:38:48;;;;;;;1.90;1.73;;;12.70;99.90;;;;;;5007001;28;20563;-78
2022/12/23 05:41:15;;;;;;;1.70;1.60;;;12.40;99.90;;;;;;5010606;28;20202;-78
2022/12/23 05:43:41;;;;;;;2.40;1.40;;;12.10;99.90;;;;;;5010366;28;20182;-77
2022/12/23 05:46:06;;;;;;;1.97;1.43;;;12.30;99.90;;;;;;5009563;28;20232;-78
2022/12/23 05:48:32;;;;;;;2.10;2.00;;;12.30;99.90;;;;;;5001527;28;20198;-78
2022/12/23 05:50:58;;;;;;;2.60;2.13;;;12.20;99.90;;;;;;5010388;28;20557;-77
2022/12/23 05:53:23;;;;;;;2.90;2.03;;;12.10;99.90;;;;;;5007090;28;20215;-78
2022/12/23 05:55:49;;;;;;;2.53;1.07;;;12.10;99.90;;;;;;5013936;28;20441;-77
2022/12/23 05:58:15;;;;;;;1.70;1.60;;;12.00;99.90;;;;;;5009556;28;20726;-78
2022/12/23 06:00:41;;;;;;;4.43;3.50;;;12.10;99.90;;;;;;5009807;28;20182;-77
2022/12/23 06:03:06;;;;;;;5.07;2.70;;;12.50;99.90;;;;;;4998930;28;20460;-77
2022/12/23 06:05:31;;;;;;;4.30;2.47;;;12.60;99.90;;;;;;5009011;28;20643;-78
2022/12/23 06:07:57;;;;;;;3.20;2.03;;;12.10;99.90;;;;;;5009509;28;20185;-78
2022/12/23 06:10:23;;;;;;;1.77;1.63;;;12.20;99.90;;;;;;4997867;28;20200;-77
2022/12/23 06:12:48;;;;;;;3.70;2.20;;;12.00;99.90;;;;;;5010736;28;20213;-77
2022/12/23 06:15:14;;;;;;;3.40;2.43;;;12.20;99.90;;;;;;5010557;28;20614;-78
2022/12/23 06:17:40;;;;;;;2.00;1.80;;;12.20;99.90;;;;;;5006987;28;20199;-78
2022/12/23 06:20:06;;;;;;;1.87;1.77;;;13.10;99.90;;;;;;5010490;28;20476;-78
2022/12/23 06:22:32;;;;;;;2.20;1.52;;;12.10;99.90;;;;;;5012640;28;20306;-77
2022/12/23 06:24:57;;;;;;;1.83;1.70;;;12.30;99.90;;;;;;5003859;28;20262;-79
2022/12/23 06:27:23;;;;;;;2.53;2.30;;;12.20;99.90;;;;;;5013395;28;20190;-77
2022/12/23 06:29:48;;;;;;;3.97;2.50;;;12.30;99.90;;;;;;5014550;28;20197;-78
2022/12/23 06:32:14;;;;;;;6.40;2.70;;;12.20;99.90;;;;;;5028659;28;20760;-78
2022/12/23 06:34:40;;;;;;;6.17;3.17;;;;;;;;;;5010177;28;20662;-78
2022/12/23 06:37:05;;;;;;;6.33;3.27;;;12.50;99.90;;;;;;5013646;28;20699;-78
2022/12/23 06:39:31;;;;;;;6.30;3.10;;;12.50;99.90;;;;;;5005799;28;20473;-78
2022/12/23 06:41:56;;;;;;;6.83;3.10;;;12.40;99.90;;;;;;5013184;28;20261;-78
2022/12/23 06:44:22;;;;;;;5.97;3.33;;;12.40;99.90;;;;;;5012422;28;20175;-78
2022/12/23 06:46:47;;;;;;;4.27;3.40;;;12.50;99.90;;;;;;5016943;28;20277;-78
2022/12/23 06:49:13;;;;;;;4.37;2.40;;;12.50;99.90;;;;;;5013979;28;20742;-78
2022/12/23 06:51:38;;;;;;;2.30;2.20;;;12.50;99.90;;;;;;5013079;28;20225;-79
2022/12/23 06:54:04;;;;;;;2.30;2.10;;;12.30;99.90;;;;;;5008393;28;20183;-78
2022/12/23 06:56:31;;;;;;;2.97;2.53;;;12.40;99.90;;;;;;5012640;28;20179;-78
2022/12/23 06:58:57;;;;;;;4.18;2.65;;;12.50;99.90;;;;;;5009666;28;20341;-78
2022/12/23 07:01:22;;;;;;;3.50;2.40;;;12.70;99.90;;;;;;5012994;28;20222;-78
2022/12/23 07:03:49;;;;;;;3.47;2.63;;;12.50;99.90;;;;;;5013503;28;20194;-78
2022/12/23 07:06:14;;;;;;;3.55;2.40;;;13.10;99.90;;;;;;5012755;28;20183;-77
2022/12/23 07:08:40;;;;;;;2.30;2.10;;;12.60;99.90;;;;;;5001539;28;20198;-78
2022/12/23 07:11:05;;;;;;;4.50;2.43;;;12.60;99.90;;;;;;5004312;28;20261;-79
2022/12/23 07:13:31;;;;;;;4.00;2.20;;;12.60;99.90;;;;;;5017709;28;20272;-78
2022/12/23 07:15:57;;;;;;;3.65;2.20;;;12.40;99.90;;;;;;5019888;28;20252;-78
2022/12/23 07:18:24;;;;;;;3.00;2.57;;;13.00;99.90;;;;;;5010649;28;20695;-78
2022/12/23 07:20:50;;;;;;;2.20;2.00;;;12.40;99.90;;;;;;5013116;28;20433;-78
2022/12/23 07:23:16;;;;;;;6.20;2.55;;;12.20;99.90;;;;;;5009565;28;20189;-77
2022/12/23 07:25:41;;;;;;;2.90;2.70;;;12.70;99.90;;;;;;5009091;28;20272;-78
2022/12/23 07:28:07;;;;;;;17.33;3.17;;;12.40;99.90;;;;;;5012113;28;20219;-77
2022/12/23 07:30:32;;;;;;;3.53;3.23;;;12.40;99.90;;;;;;5012224;28;20195;-78
2022/12/23 07:32:58;;;;;;;5.27;2.80;;;11.90;99.90;;;;;;4999522;28;20757;-78
2022/12/23 07:35:24;;;;;;;5.30;3.27;;;12.20;99.90;;;;;;5011153;28;20732;-78
2022/12/23 07:37:52;;;;;;;3.93;3.47;;;12.60;99.90;;;;;;5012173;28;20186;-78
2022/12/23 07:40:17;;;;;;;8.57;5.75;;;12.10;99.90;;;;;;5006218;28;20550;-78
2022/12/23 07:42:43;;;;;;;8.50;3.70;;;12.10;99.90;;;;;;5016141;28;20667;-78
2022/12/23 07:45:09;;;;;;;4.33;3.30;;;12.20;99.90;;;;;;5012548;28;20179;-77
2022/12/23 07:47:34;;;;;;;5.97;3.40;;;12.20;99.90;;;;;;5021434;28;20206;-77
2022/12/23 07:50:00;;;;;;;4.43;2.90;;;12.10;99.90;;;;;;5017434;28;20515;-77
2022/12/23 07:52:25;;;;;;;4.00;3.00;;;11.90;99.90;;;;;;5011202;28;20237;-77
2022/12/23 07:54:50;;;;;;;5.23;3.20;;;12.30;99.90;;;;;;5004294;28;20198;-78
2022/12/23 07:57:16;;;;;;;4.30;3.20;;;12.30;99.90;;;;;;5011136;28;20206;-78
2022/12/23 07:59:41;;;;;;;6.03;3.53;;;12.50;99.90;;;;;;5011531;28;20206;-78
2022/12/23 08:02:09;;;;;;;5.90;4.10;;;12.20;99.90;;;;;;5009297;28;20230;-78
2022/12/23 08:04:34;;;;;;;5.68;3.67;;;12.40;99.90;;;;;;5011939;28;20181;-78
2022/12/23 08:07:00;;;;;;;3.50;2.20;;;12.80;99.90;;;;;;5009893;28;20200;-78
2022/12/23 08:09:25;;;;;;;3.50;3.20;;;12.20;99.90;;;;;;4999997;28;20195;-78
2022/12/23 08:11:51;;;;;;;4.13;2.60;;;12.30;99.90;;;;;;5011206;28;20577;-78
2022/12/23 08:14:16;;;;;;;3.43;2.73;;;12.10;99.90;;;;;;5011192;28;20194;-78
2022/12/23 08:16:42;;;;;;;3.40;3.10;;;12.10;99.90;;;;;;5008645;28;20214;-78
2022/12/23 08:19:07;;;;;;;3.23;2.73;;;12.50;99.90;;;;;;5003595;28;20214;-78
2022/12/23 08:21:33;;;;;;;2.70;2.50;;;12.20;99.90;;;;;;5011057;28;20206;-78
2022/12/23 08:23:58;;;;;;;3.70;2.93;;;13.00;99.90;;;;;;5005247;28;20196;-78
2022/12/23 08:26:24;;;;;;;4.00;2.83;;;12.70;99.90;;;;;;5010926;28;20182;-78
2022/12/23 08:28:53;;;;;;;3.70;2.83;;;12.70;99.90;;;;;;5011641;28;20686;-78
2022/12/23 08:31:21;;;;;;;4.45;3.53;;;12.20;99.90;;;;;;5009314;28;20207;-78
2022/12/23 08:33:51;;;;;;;4.90;3.10;;;12.50;99.90;;;;;;5003944;28;20186;-78
2022/12/23 08:36:19;;;;;;;4.80;3.13;;;12.50;99.90;;;;;;5011028;28;20197;-78
2022/12/23 08:38:45;;;;;;;5.97;3.25;;;12.50;99.90;;;;;;5004485;28;20305;-79
2022/12/23 08:41:13;;;;;;;3.67;3.10;;;13.00;99.90;;;;;;5009883;28;20699;-78
2022/12/23 08:43:39;;;;;;;5.20;4.75;;;12.80;99.90;;;;;;5010099;28;20171;-78
2022/12/23 08:46:04;;;;;;;5.57;4.10;;;13.00;99.90;;;;;;5019266;28;20608;-78
2022/12/23 08:48:31;;;;;;;6.00;3.80;;;12.80;99.90;;;;;;5008628;28;20198;-78
2022/12/23 08:51:00;;;;;;;4.18;3.78;;;12.60;99.90;;;;;;5010895;28;20209;-78
2022/12/23 08:53:26;;;;;;;5.57;3.53;;;13.00;99.90;;;;;;5003979;28;20860;-78
2022/12/23 08:55:51;;;;;;;4.20;3.53;;;12.90;99.90;;;;;;5009288;28;20293;-79
2022/12/23 08:58:17;;;;;;;5.13;3.60;;;12.70;99.90;;;;;;5010509;28;20300;-79
2022/12/23 09:00:42;;;;;;;3.53;2.90;;;12.50;99.90;;;;;;5008439;28;20573;-78
2022/12/23 09:03:08;;;;;;;3.87;3.47;;;12.40;99.90;;;;;;5011104;28;20631;-79
2022/12/23 09:05:38;;;;;;;4.90;3.80;;;12.30;99.90;;;;;;5007208;28;20194;-79
2022/12/23 09:08:04;;;;;;;3.50;3.20;;;12.40;99.90;;;;;;5010525;28;20187;-78
2022/12/23 09:10:29;;;;;;;3.80;3.10;;;12.80;99.90;;;;;;4998608;28;20249;-78
2022/12/23 09:12:55;;;;;;;3.60;3.00;;;12.60;99.90;;;;;;5014517;28;20289;-79
2022/12/23 09:15:20;;;;;;;5.03;4.00;;;12.40;99.90;;;;;;5017423;28;20202;-78
2022/12/23 09:17:46;;;;;;;2.50;2.20;;;12.70;99.90;;;;;;5026886;28;20201;-79
2022/12/23 09:20:12;;;;;;;3.40;2.83;;;12.30;99.90;;;;;;5000112;28;20303;-79
2022/12/23 09:22:37;;;;;;;4.30;3.20;;;12.60;99.90;;;;;;5010456;28;20230;-79
2022/12/23 09:25:03;;;;;;;8.40;4.10;;;12.70;99.90;;;;;;5002239;28;20225;-79
2022/12/23 09:27:29;;;;;;;3.00;2.70;;;12.70;99.90;;;;;;5011549;28;20183;-78
2022/12/23 09:29:55;;;;;;;2.90;2.70;;;12.70;99.90;;;;;;5009959;28;21007;-78
2022/12/23 09:32:20;;;;;;;4.60;3.37;;;13.00;99.90;;;;;;5008025;28;20210;-79
2022/12/23 09:34:46;;;;;;;3.37;3.00;;;12.70;99.90;;;;;;5008629;28;20201;-78
2022/12/23 09:37:15;;;;;;;3.50;3.20;;;12.80;99.90;;;;;;5010617;28;20269;-78
2022/12/23 09:39:41;;;;;;;2.63;2.42;;;12.80;99.90;;;;;;5004225;28;20218;-78
2022/12/23 09:42:27;;;;;;;4.50;4.07;;;12.90;99.90;;;;;;5009765;28;20702;-79
2022/12/23 09:45:10;;;;;;;3.92;2.88;;;12.90;99.90;;;;;;5012272;28;20778;-78
2022/12/23 09:47:37;;;;;;;4.20;3.80;;;13.00;99.90;;;;;;5008743;28;20182;-78
2022/12/23 09:50:14;;;;;;;3.55;2.40;;;13.40;99.90;;;;;;5007462;28;20191;-78
2022/12/23 09:53:03;;;;;;;6.28;3.33;;;13.20;99.90;;;;;;4998724;28;20619;-78
2022/12/23 09:55:42;;;;;;;2.72;1.85;;;13.20;99.90;;;;;;5014312;28;20186;-78
2022/12/23 09:58:26;;;;;;;5.00;2.10;;;13.60;99.90;;;;;;5013942;28;20531;-77
2022/12/23 10:01:16;;;;;;;3.70;2.83;;;13.30;99.90;;;;;;5003680;28;20218;-78
2022/12/23 10:04:21;;;;;;;5.07;3.38;;;13.10;99.90;;;;;;5003015;28;20678;-78
2022/12/23 10:06:57;;;;;;;4.22;2.95;;;13.20;99.90;;;;;;5013730;28;20195;-77
2022/12/23 10:09:23;;;;;;;6.13;3.40;;;13.20;99.90;;;;;;5002688;28;20187;-77
2022/12/23 10:11:50;;;;;;;1.60;1.40;;;13.00;99.90;;;;;;5012639;28;20301;-77
2022/12/23 10:14:23;;;;;;;2.65;2.30;;;13.70;99.90;;;;;;5013105;28;20325;-78
2022/12/23 10:16:56;;;;;;;1.98;1.52;;;13.30;99.90;;;;;;5012137;28;20179;-77
2022/12/23 10:19:41;;;;;;;3.95;3.13;;;13.40;99.90;;;;;;5009226;28;20258;-78
2022/12/23 10:22:25;;;;;;;3.08;2.30;;;13.30;99.90;;;;;;5013473;28;20268;-78
2022/12/23 10:24:52;;;;;;;2.25;1.60;;;13.40;99.90;;;;;;5003262;28;20186;-78
2022/12/23 10:27:31;;;;;;;1.55;1.45;;;13.20;99.90;;;;;;5013196;28;20179;-78
2022/12/23 10:30:20;;;;;;;2.20;1.52;;;13.10;99.90;;;;;;5025031;28;20233;-78
2022/12/23 10:33:03;;;;;;;1.70;1.60;;;13.90;99.90;;;;;;5000373;28;20750;-79
2022/12/23 10:36:01;;;;;;;1.10;1.00;;;13.60;99.90;;;;;;5004401;28;20225;-78
2022/12/23 10:38:41;;;;;;;1.67;1.58;;;13.60;99.90;;;;;;5009163;28;20316;-78
2022/12/23 10:41:31;;;;;;;2.20;1.95;;;13.60;99.90;;;;;;5011336;28;20288;-78
2022/12/23 10:44:31;;;;;;;4.80;3.00;;;13.80;99.90;;;;;;5015663;28;20187;-78
2022/12/23 10:47:23;;;;;;;3.45;2.60;;;13.60;99.90;;;;;;5009994;28;20234;-78
2022/12/23 10:50:03;;;;;;;2.70;2.42;;;13.80;99.90;;;;;;5005660;28;20704;-79
2022/12/23 10:52:32;;;;;;;4.63;3.10;;;13.80;99.90;;;;;;5012531;28;20285;-78
2022/12/23 10:54:58;;;;;;;1.55;1.45;;;13.80;99.90;;;;;;5009509;28;20187;-79
2022/12/23 10:57:24;;;;;;;2.67;2.37;;;14.00;99.90;;;;;;5012617;28;20288;-78
2022/12/23 10:59:51;;;;;;;5.20;3.15;;;13.90;99.90;;;;;;5009431;28;20578;-78
2022/12/23 11:02:30;;;;;;;1.80;1.70;;;13.90;99.90;;;;;;5013157;28;20294;-78
2022/12/23 11:04:56;;;;;;;1.63;1.52;;;14.00;99.90;;;;;;5013023;28;20191;-78
2022/12/23 11:07:24;;;;;;;2.30;1.67;;;14.10;99.90;;;;;;5002698;28;20694;-79
2022/12/23 11:10:00;;;;;;;1.45;1.25;;;13.80;99.90;;;;;;4997008;28;20561;-78
2022/12/23 11:12:39;;;;;;;3.05;1.92;;;14.00;99.90;;;;;;5006727;28;20252;-78
2022/12/23 11:15:22;;;;;;;2.13;1.70;;;13.70;99.90;;;;;;5010505;28;20193;-78
2022/12/23 11:18:00;;;;;;;1.52;1.40;;;13.70;99.90;;;;;;5011822;28;20229;-78
2022/12/23 11:20:27;;;;;;;1.70;1.60;;;13.80;99.90;;;;;;5009230;28;20214;-79
2022/12/23 11:22:57;;;;;;;3.20;2.13;;;13.90;99.90;;;;;;5008684;28;20823;-79
2022/12/23 11:25:37;;;;;;;4.00;2.63;;;13.80;99.90;;;;;;5002857;28;20580;-78
2022/12/23 11:28:09;;;;;;;2.10;1.90;;;13.70;99.90;;;;;;5010058;28;20721;-78
2022/12/23 11:30:44;;;;;;;1.58;1.30;;;14.00;99.90;;;;;;5012331;28;20237;-77
2022/12/23 11:33:23;;;;;;;5.72;3.65;;;14.20;99.90;;;;;;5011120;28;20642;-79
2022/12/23 11:36:07;;;;;;;3.58;2.40;;;13.90;99.90;;;;;;5013158;28;20190;-78
2022/12/23 11:38:35;;;;;;;4.60;2.83;;;14.20;99.90;;;;;;5004109;28;20207;-78
2022/12/23 11:41:03;;;;;;;2.58;2.33;;;14.50;99.90;;;;;;5002346;28;20349;-77
2022/12/23 11:43:31;;;;;;;4.38;3.97;;;14.50;99.90;;;;;;5001225;28;20714;-79
2022/12/23 11:46:33;;;;;;;2.13;1.63;;;14.40;99.90;;;;;;5003105;28;20190;-79
2022/12/23 11:49:13;;;;;;;3.28;2.97;;;14.40;99.90;;;;;;5010917;28;20666;-79
2022/12/23 11:51:39;;;;;;;2.60;1.80;;;13.90;99.90;;;;;;5008450;28;20211;-78
2022/12/23 11:54:04;;;;;;;2.50;2.33;;;14.40;99.90;;;;;;5008158;28;20187;-78
2022/12/23 11:56:39;;;;;;;4.87;2.00;;;14.50;99.90;;;;;;5014339;28;20222;-79
2022/12/23 11:59:08;;;;;;;1.63;1.35;;;14.80;99.90;;;;;;5019173;28;20207;-79
2022/12/23 12:01:36;;;;;;;2.20;1.30;;;14.70;99.90;;;;;;5022389;28;20221;-79
2022/12/23 12:04:19;;;;;;;1.77;0.80;;;15.00;99.90;;;;;;5007269;28;20183;-79
2022/12/23 12:06:45;;;;;;;1.80;0.70;;;14.70;99.90;;;;;;5030791;28;20228;-79
2022/12/23 12:09:12;;;;;;;1.00;0.80;;;14.50;99.90;;;;;;5006035;28;20230;-77
2022/12/23 12:11:50;;;;;;;1.00;0.90;;;14.90;99.90;;;;;;5016918;28;20531;-78
2022/12/23 12:14:31;;;;;;;3.20;1.00;;;14.70;99.90;;;;;;5032632;28;20201;-78
2022/12/23 12:17:19;;;;;;;1.42;1.30;;;14.40;99.90;;;;;;5029689;28;20197;-78
2022/12/23 12:20:00;;;;;;;1.08;0.98;;;14.60;99.90;;;;;;5009778;28;20235;-78
2022/12/23 12:22:40;;;;;;;1.20;1.00;;;14.50;99.90;;;;;;5028780;28;20276;-79
2022/12/23 12:25:36;;;;;;;1.40;1.30;;;14.50;99.90;;;;;;5007887;28;20186;-79
2022/12/23 12:28:13;;;;;;;1.00;0.93;;;14.50;99.90;;;;;;5010922;28;20203;-79
2022/12/23 12:30:47;;;;;;;3.80;2.17;;;14.20;99.90;;;;;;5010680;28;20190;-79
2022/12/23 12:33:26;;;;;;;1.98;1.30;;;14.20;99.90;;;;;;5012305;28;20178;-78
2022/12/23 12:36:13;;;;;;;2.05;1.45;;;14.60;99.90;;;;;;5016842;28;20190;-79
2022/12/23 12:38:39;;;;;;;1.35;1.08;;;14.40;99.90;;;;;;5013009;28;20211;-79
2022/12/23 12:41:14;;;;;;;2.08;1.30;;;14.50;99.90;;;;;;5030692;28;20236;-78
2022/12/23 12:44:02;;;;;;;1.42;1.00;;;14.50;99.90;;;;;;5020243;28;20171;-79
2022/12/23 12:46:48;;;;;;;1.70;1.60;;;14.50;99.90;;;;;;5007816;28;20187;-79
2022/12/23 12:49:21;;;;;;;2.05;1.50;;;14.80;99.90;;;;;;5006029;28;20226;-78
2022/12/23 12:52:18;;;;;;;3.22;1.92;;;14.80;99.90;;;;;;5010668;28;20671;-78
2022/12/23 12:54:49;;;;;;;1.67;1.20;;;14.30;99.90;;;;;;5005192;28;20266;-79
2022/12/23 12:57:18;;;;;;;2.13;1.20;;;14.40;99.90;;;;;;5014706;28;20206;-78
2022/12/23 12:59:46;;;;;;;2.83;1.40;;;14.30;99.90;;;;;;5010325;28;20276;-79
2022/12/23 13:02:24;;;;;;;1.10;1.00;;;14.50;99.90;;;;;;5006013;28;20221;-78
2022/12/23 13:05:23;;;;;;;1.88;1.20;;;14.00;99.90;;;;;;5009158;28;20185;-78
2022/12/23 13:08:04;;;;;;;2.15;1.40;;;14.40;99.90;;;;;;5009874;28;20285;-79
2022/12/23 13:10:38;;;;;;;1.50;1.40;;;14.40;99.90;;;;;;5007448;28;20182;-78
2022/12/23 13:13:23;;;;;;;4.53;1.65;;;14.50;99.90;;;;;;5010487;28;20694;-79
2022/12/23 13:16:23;;;;;;;2.88;1.63;;;14.60;99.90;;;;;;5010162;28;20216;-79
2022/12/23 13:19:07;;;;;;;1.80;1.70;;;14.60;99.90;;;;;;5007935;28;20584;-79
2022/12/23 13:21:49;;;;;;;1.50;1.27;;;14.50;99.90;;;;;;5004681;28;20206;-78
2022/12/23 13:24:38;;;;;;;2.05;1.40;;;15.00;99.90;;;;;;5010744;28;20483;-78
2022/12/23 13:27:14;;;;;;;2.95;1.38;;;14.90;99.90;;;;;;5009839;28;20269;-79
2022/12/23 13:30:00;;;;;;;2.10;1.73;;;14.80;99.90;;;;;;5003464;28;20186;-78
2022/12/23 13:32:44;;;;;;;2.88;1.80;;;14.80;99.90;;;;;;5008001;28;20738;-78
2022/12/23 13:35:32;;;;;;;2.35;1.20;;;14.70;99.90;;;;;;5011385;28;20193;-78